Terminal Aerodrome Forecast
Issued by NWS

Home | Current Version | Previous Version | Text Only | Print | Product List | Glossary On
Versions: 1 2 3 4 5 6 7 8 9 10 11 12 13 14 15 16 17
988
FTUS43 KSGF 142320
TAFBBG
TAF
KBBG 142320Z 1500/1524 VRB04KT P6SM OVC010
     FM150500 VRB03KT 4SM BR SCT020 SCT080
      TEMPO 1505/1509 3SM BR BKN009
     FM151000 VRB04KT 5SM BR SCT020 BKN060
     FM151600 19005KT P6SM BKN080
     FM151900 28008KT P6SM SKC=

USA.gov is the U.S. government's official web portal to all federal, state and local government web resources and services.